Time;durP1;ratioP1;P1;durP2;ratioP2;P2;SDS_P1;SDS_P2;PMS_P1;PMS_P2;Temp;Humidity;BMP_temperature;BMP_pressure;BME280_temperature;BME280_humidity;BME280_pressure;Samples;Min_cycle;Max_cycle;Signal;HPM_P1;HPM_P2
2022/06/20 00:01:46;;;;;;;7.00;2.53;;;;;;;19.19;52.31;94761.69;4203528;28;20510;-56
2022/06/20 00:03:48;;;;;;;4.18;2.40;;;;;;;19.21;52.25;94767.59;4200151;28;20489;-54
2022/06/20 00:05:51;;;;;;;4.60;2.60;;;;;;;19.20;51.81;94758.00;4215940;28;20052;-53
2022/06/20 00:07:53;;;;;;;3.75;2.47;;;;;;;19.20;52.56;94760.63;4208771;28;20076;-54
2022/06/20 00:09:54;;;;;;;3.80;2.55;;;;;;;19.16;52.87;94760.25;4207779;28;20117;-54
2022/06/20 00:11:56;;;;;;;5.85;2.38;;;;;;;19.07;52.90;94761.50;4207045;28;20048;-56
2022/06/20 00:13:58;;;;;;;3.97;2.42;;;;;;;19.00;52.98;94758.06;4198273;28;20047;-57
2022/06/20 00:16:01;;;;;;;7.82;2.60;;;;;;;18.87;52.72;94766.88;4209145;28;20055;-55
2022/06/20 00:18:05;;;;;;;4.38;2.08;;;;;;;18.71;52.82;94762.00;4208761;28;20044;-53
2022/06/20 00:20:14;;;;;;;7.40;2.47;;;;;;;18.38;53.20;94765.53;4209797;28;20568;-56
2022/06/20 00:22:16;;;;;;;2.83;2.10;;;;;;;17.92;54.31;94763.72;4207803;28;20052;-56
2022/06/20 00:24:18;;;;;;;4.70;2.25;;;;;;;17.59;55.40;94757.31;4198310;28;20461;-55
2022/06/20 00:26:19;;;;;;;6.03;2.40;;;;;;;17.52;55.92;94755.66;4208491;28;20055;-56
2022/06/20 00:28:21;;;;;;;2.88;2.30;;;;;;;17.65;55.86;94762.81;4214295;28;20421;-55
2022/06/20 00:30:23;;;;;;;5.43;2.17;;;;;;;17.83;55.37;94757.75;4195077;28;20106;-54
2022/06/20 00:32:25;;;;;;;5.30;2.65;;;;;;;17.99;55.07;94762.66;4195477;28;20104;-56
2022/06/20 00:34:27;;;;;;;6.40;2.50;;;;;;;18.15;54.80;94760.63;4208988;28;20097;-55
2022/06/20 00:36:29;;;;;;;5.50;2.75;;;;;;;18.24;54.83;94758.59;4195584;28;20053;-55
2022/06/20 00:38:31;;;;;;;6.57;2.88;;;;;;;18.08;55.62;94759.81;4204299;28;20051;-52
2022/06/20 00:40:37;;;;;;;4.47;2.70;;;;;;;17.63;57.08;94756.91;4206399;28;20433;-50
2022/06/20 00:42:38;;;;;;;6.05;2.97;;;;;;;17.63;57.29;94759.53;4195878;28;20060;-49
2022/06/20 00:44:45;;;;;;;5.10;2.72;;;;;;;17.74;57.16;94748.34;4208180;28;20052;-51
2022/06/20 00:46:51;;;;;;;6.43;3.28;;;;;;;17.88;56.65;94747.38;4207096;28;20109;-54
2022/06/20 00:49:14;;;;;;;6.28;3.10;;;;;;;18.02;56.14;94745.53;4207155;28;20516;-53
2022/06/20 00:51:26;;;;;;;4.32;2.92;;;;;;;18.12;56.34;94750.44;4197542;28;20047;-54
2022/06/20 00:53:50;;;;;;;3.38;2.80;;;;;;;18.20;55.75;94747.59;4206900;28;20440;-52
2022/06/20 00:56:22;;;;;;;5.68;3.08;;;;;;;18.27;55.32;94750.25;4207722;28;20063;-51
2022/06/20 00:58:38;;;;;;;8.90;2.88;;;;;;;18.36;55.35;94747.16;4197938;28;20048;-50
2022/06/20 01:00:41;;;;;;;5.20;3.15;;;;;;;18.38;55.09;94742.47;4206813;28;20059;-48
2022/06/20 01:02:46;;;;;;;7.82;3.15;;;;;;;18.41;55.17;94747.38;4204208;28;20056;-52
2022/06/20 01:05:03;;;;;;;5.53;3.28;;;;;;;18.44;55.46;94742.69;4199674;28;20051;-50
2022/06/20 01:07:08;;;;;;;3.75;2.70;;;;;;;18.45;55.72;94741.63;4206912;28;20582;-51
2022/06/20 01:09:10;;;;;;;4.20;2.55;;;;;;;18.45;55.79;94745.09;4208507;28;20112;-50
2022/06/20 01:11:17;;;;;;;3.67;2.90;;;;;;;18.49;55.69;94734.91;4207056;28;20139;-52
2022/06/20 01:13:22;;;;;;;5.97;2.95;;;;;;;18.51;55.62;94738.97;4208037;28;20097;-49
2022/06/20 01:15:26;;;;;;;6.10;2.80;;;;;;;18.54;55.57;94732.44;4206980;28;20484;-51
2022/06/20 01:17:35;;;;;;;7.72;2.55;;;;;;;18.58;55.72;94738.97;4206812;28;20052;-48
2022/06/20 01:20:03;;;;;;;5.35;2.70;;;;;;;18.62;55.80;94737.53;4222333;28;20059;-53
2022/06/20 01:22:29;;;;;;;5.75;2.80;;;;;;;18.65;55.92;94734.47;4204467;28;20051;-50
2022/06/20 01:24:35;;;;;;;6.00;3.40;;;;;;;18.66;55.69;94732.63;4209916;28;20052;-51
2022/06/20 01:26:46;;;;;;;4.70;3.30;;;;;;;18.61;55.78;94741.22;4209048;28;20101;-49
2022/06/20 01:28:49;;;;;;;5.78;3.40;;;;;;;18.60;55.89;94735.06;4210538;28;20044;-50
2022/06/20 01:30:51;;;;;;;5.53;3.35;;;;;;;18.59;55.80;94740.59;4207461;28;20044;-49
2022/06/20 01:32:55;;;;;;;6.97;3.97;;;;;;;18.57;55.89;94734.69;4203810;28;20044;-51
2022/06/20 01:35:02;;;;;;;4.32;3.47;;;;;;;18.52;56.18;94737.13;4208972;28;20070;-51
2022/06/20 01:37:23;;;;;;;5.65;3.72;;;;;;;18.44;56.29;94732.88;4217008;28;20155;-53
2022/06/20 01:39:26;;;;;;;6.68;3.78;;;;;;;18.35;56.72;94744.72;4214021;28;20056;-49
2022/06/20 01:43:49;;;;;;;6.60;3.30;;;;;;;18.31;56.73;94738.22;4210719;28;20048;-51
2022/06/20 01:46:00;;;;;;;4.93;3.53;;;;;;;18.30;56.75;94734.72;4209527;28;20159;-49
2022/06/20 01:48:05;;;;;;;5.75;3.38;;;;;;;18.31;56.54;94733.72;4211384;28;20040;-50
2022/06/20 01:50:07;;;;;;;4.45;3.17;;;;;;;18.31;56.52;94730.25;4212547;28;20569;-54
2022/06/20 01:52:26;;;;;;;4.63;3.30;;;;;;;18.32;56.48;94740.63;4216039;28;20541;-52
2022/06/20 01:54:30;;;;;;;8.60;3.47;;;;;;;18.27;56.89;94735.13;4196516;28;20056;-51
2022/06/20 01:56:32;;;;;;;6.72;4.20;;;;;;;18.26;57.18;94733.50;4210040;28;20501;-49
2022/06/20 01:58:38;;;;;;;8.75;3.55;;;;;;;18.28;57.30;94733.28;4202724;28;20497;-50
2022/06/20 02:00:39;;;;;;;5.20;3.42;;;;;;;18.24;57.01;94732.06;4202751;28;20512;-52
2022/06/20 02:02:46;;;;;;;4.78;3.80;;;;;;;17.93;57.26;94736.97;4224399;28;20048;-50
2022/06/20 02:04:49;;;;;;;4.03;3.22;;;;;;;17.66;57.86;94727.34;4206029;28;20109;-50
2022/06/20 02:06:51;;;;;;;6.22;3.00;;;;;;;17.59;58.13;94738.78;4208259;28;20052;-52
2022/06/20 02:08:55;;;;;;;7.47;3.08;;;;;;;17.39;58.04;94735.25;4209053;28;20104;-51
2022/06/20 02:11:07;;;;;;;;;;;;;;;16.90;59.38;94736.31;4209928;28;20151;-51
2022/06/20 02:13:09;;;;;;;4.40;3.20;;;;;;;16.48;60.69;94738.13;4210617;28;19924;-53
2022/06/20 02:15:17;;;;;;;7.95;3.33;;;;;;;16.41;61.17;94731.94;4219544;28;20048;-53
2022/06/20 02:17:44;;;;;;;4.95;3.10;;;;;;;16.41;61.66;94731.94;4209081;28;20102;-53
2022/06/20 02:19:49;;;;;;;5.22;3.17;;;;;;;16.51;61.41;94733.22;4210165;28;20051;-53
2022/06/20 02:21:52;;;;;;;5.88;3.33;;;;;;;16.68;61.61;94730.28;4213059;28;20116;-52
2022/06/20 02:23:57;;;;;;;4.57;2.80;;;;;;;16.89;61.13;94730.22;4220880;28;20158;-49
2022/06/20 02:26:00;;;;;;;4.60;3.22;;;;;;;17.14;60.10;94729.66;4209361;28;20056;-52
2022/06/20 02:28:05;;;;;;;8.75;3.50;;;;;;;17.26;59.41;94733.38;4219877;28;20040;-55
2022/06/20 02:30:08;;;;;;;6.00;3.00;;;;;;;17.39;59.04;94730.75;4217194;28;20056;-53
2022/06/20 02:32:22;;;;;;;3.13;2.65;;;;;;;17.49;58.08;94721.63;4206250;28;20217;-48
2022/06/20 02:34:26;;;;;;;6.07;2.70;;;;;;;17.58;57.51;94729.19;4210635;28;20485;-47
2022/06/20 02:36:28;;;;;;;;;;;;;;;17.63;57.52;94722.47;4204586;28;20047;-51
2022/06/20 02:38:30;;;;;;;3.83;2.83;;;;;;;17.67;57.66;94723.69;4206751;28;19936;-52
2022/06/20 02:40:32;;;;;;;5.88;3.42;;;;;;;17.74;57.82;94719.19;4204448;28;20044;-47
2022/06/20 02:42:38;;;;;;;8.43;3.53;;;;;;;17.80;57.74;94713.91;4209879;28;20061;-50
2022/06/20 02:44:43;;;;;;;4.82;3.20;;;;;;;17.85;57.68;94715.97;4199628;28;20052;-54
2022/06/20 02:46:47;;;;;;;4.97;3.53;;;;;;;17.88;58.04;94720.88;4214926;28;20051;-50
2022/06/20 02:48:50;;;;;;;6.25;3.90;;;;;;;17.89;58.04;94714.56;4196160;28;20644;-51
2022/06/20 02:50:55;;;;;;;14.50;3.80;;;;;;;17.93;58.48;94707.00;4210847;28;20048;-51
2022/06/20 02:53:04;;;;;;;6.90;3.75;;;;;;;17.91;58.88;94712.50;4208228;28;20276;-50
2022/06/20 02:55:07;;;;;;;10.88;3.90;;;;;;;17.92;59.12;94719.47;4208895;28;20047;-50
2022/06/20 02:57:15;;;;;;;6.80;3.83;;;;;;;17.93;59.22;94713.13;4210103;28;20048;-50
2022/06/20 02:59:21;;;;;;;6.30;3.85;;;;;;;17.94;58.88;94722.72;4206284;28;20102;-50
2022/06/20 03:01:26;;;;;;;7.32;3.28;;;;;;;17.97;58.33;94726.78;4206418;28;20052;-51
2022/06/20 03:03:34;;;;;;;6.18;3.47;;;;;;;17.96;58.37;94720.69;4211782;28;20467;-50
2022/06/20 03:05:37;;;;;;;5.75;3.10;;;;;;;17.95;58.50;94724.34;4202031;28;20040;-48
2022/06/20 03:07:40;;;;;;;6.88;3.72;;;;;;;17.95;58.06;94716.38;4207888;28;20071;-54
2022/06/20 03:09:45;;;;;;;5.47;3.50;;;;;;;17.93;57.97;94717.63;4208791;28;20044;-50
2022/06/20 03:11:46;;;;;;;9.88;3.70;;;;;;;17.92;57.83;94727.41;4217868;28;20582;-50
2022/06/20 03:13:49;;;;;;;6.00;3.60;;;;;;;17.94;57.54;94722.72;4216337;28;20102;-52
2022/06/20 03:15:52;;;;;;;5.45;3.25;;;;;;;17.98;57.44;94718.66;4207031;28;20129;-53
2022/06/20 03:17:57;;;;;;;6.20;3.95;;;;;;;17.87;57.16;94721.88;4205490;28;20230;-51
2022/06/20 03:20:02;;;;;;;9.75;3.00;;;;;;;17.23;57.89;94715.25;4201821;28;20056;-52
2022/06/20 03:22:08;;;;;;;7.00;3.40;;;;;;;16.63;59.87;94717.66;4218168;28;20060;-53
2022/06/20 03:24:15;;;;;;;5.82;3.35;;;;;;;16.55;60.93;94720.44;4214698;28;20134;-51
2022/06/20 03:26:20;;;;;;;4.55;2.88;;;;;;;16.70;60.40;94715.03;4208544;28;20056;-51
2022/06/20 03:28:23;;;;;;;6.18;3.50;;;;;;;16.88;60.18;94720.63;4210180;28;20051;-51
2022/06/20 03:30:36;;;;;;;7.22;2.90;;;;;;;17.02;59.74;94728.63;4207410;28;20048;-51
2022/06/20 03:32:38;;;;;;;5.75;3.15;;;;;;;17.18;58.98;94721.13;4209656;28;20050;-51
2022/06/20 03:34:40;;;;;;;5.20;3.08;;;;;;;17.34;58.48;94716.50;4207674;28;20086;-50
2022/06/20 03:36:42;;;;;;;4.05;2.95;;;;;;;17.44;58.10;94719.56;4196291;28;20094;-51
2022/06/20 03:38:44;;;;;;;7.55;3.17;;;;;;;17.43;58.10;94719.78;4208358;28;20056;-53
2022/06/20 03:40:46;;;;;;;7.32;3.10;;;;;;;17.44;58.05;94716.09;4207841;28;20100;-52
2022/06/20 03:42:48;;;;;;;6.40;3.50;;;;;;;17.50;57.80;94720.59;4207375;28;20123;-49
2022/06/20 03:44:54;;;;;;;5.30;3.20;;;;;;;17.58;57.30;94715.94;4218086;28;20051;-52
2022/06/20 03:47:20;;;;;;;5.93;3.03;;;;;;;17.70;56.97;94728.56;4212742;28;20048;-52
2022/06/20 03:49:34;;;;;;;5.82;3.28;;;;;;;17.76;56.83;94728.56;4197148;28;20354;-55
2022/06/20 03:51:39;;;;;;;9.88;4.72;;;;;;;17.63;57.16;94728.56;4208085;28;20055;-54
2022/06/20 03:53:59;;;;;;;9.73;3.72;;;;;;;17.38;57.86;94728.34;4208945;28;20048;-53
2022/06/20 03:56:12;;;;;;;7.30;3.60;;;;;;;17.25;58.49;94733.56;4194136;28;20047;-54
2022/06/20 03:58:22;;;;;;;5.40;3.78;;;;;;;17.12;59.10;94732.53;4206491;28;20048;-57
2022/06/20 04:00:47;;;;;;;5.80;4.15;;;;;;;17.20;59.17;94737.63;4202361;28;20052;-55
2022/06/20 04:02:59;;;;;;;11.23;5.05;;;;;;;17.14;59.44;94733.16;4208097;28;20483;-52
2022/06/20 04:05:11;;;;;;;5.68;3.97;;;;;;;17.25;59.34;94736.22;4207548;28;20086;-53
2022/06/20 04:07:40;;;;;;;8.95;4.43;;;;;;;17.36;58.96;94730.38;4202173;28;20109;-56
2022/06/20 04:13:02;;;;;;;6.78;4.35;;;;;;;17.36;58.04;94733.00;4208000;28;20052;-55
2022/06/20 04:15:12;;;;;;;5.05;4.00;;;;;;;17.34;58.14;94729.75;4207670;28;20068;-56
2022/06/20 04:19:52;;;;;;;8.32;4.15;;;;;;;17.59;57.89;94717.56;4225242;28;20561;-54
2022/06/20 04:22:04;;;;;;;6.70;4.20;;;;;;;17.74;56.57;94711.25;4225610;28;20044;-54
2022/06/20 04:24:10;;;;;;;7.28;4.55;;;;;;;17.90;56.20;94713.53;4224159;28;20055;-55
2022/06/20 04:26:27;;;;;;;7.53;4.70;;;;;;;18.05;55.93;94713.34;4224305;28;20478;-53
2022/06/20 04:28:33;;;;;;;9.02;4.57;;;;;;;18.20;55.70;94713.13;4210703;28;20052;-55
2022/06/20 04:30:47;;;;;;;7.07;4.60;;;;;;;18.33;55.68;94718.41;4214764;28;20120;-52
2022/06/20 04:32:53;;;;;;;7.85;4.45;;;;;;;18.48;55.51;94712.06;4211001;28;20528;-56
2022/06/20 04:35:01;;;;;;;8.57;5.18;;;;;;;18.60;55.35;94723.66;4208176;28;20488;-52
2022/06/20 04:37:06;;;;;;;5.88;5.18;;;;;;;18.71;54.43;94722.19;4202654;28;20059;-55
2022/06/20 04:39:16;;;;;;;9.23;4.60;;;;;;;18.39;54.57;94719.41;4216234;28;20052;-54
2022/06/20 04:41:35;;;;;;;8.10;4.82;;;;;;;18.15;55.75;94715.56;4209687;28;20111;-54
2022/06/20 04:43:57;;;;;;;5.53;3.90;;;;;;;18.19;55.71;94714.94;4225464;28;20149;-55
2022/06/20 04:46:06;;;;;;;7.15;4.70;;;;;;;18.34;55.54;94720.03;4194858;28;20373;-55
2022/06/20 04:48:16;;;;;;;8.10;4.45;;;;;;;18.34;55.28;94720.03;4217953;28;20069;-55
2022/06/20 04:50:22;;;;;;;9.07;4.60;;;;;;;18.43;55.27;94712.66;4211555;28;20272;-56
2022/06/20 04:52:26;;;;;;;9.18;4.80;;;;;;;18.55;55.13;94704.91;4222004;28;20462;-56
2022/06/20 04:54:27;;;;;;;10.45;4.63;;;;;;;18.66;55.02;94708.75;4207269;28;20504;-56
2022/06/20 04:56:29;;;;;;;7.43;4.50;;;;;;;18.70;54.71;94705.47;4206379;28;20047;-57
2022/06/20 04:58:34;;;;;;;9.27;4.00;;;;;;;18.78;54.49;94702.63;4200924;28;20489;-56
2022/06/20 05:00:39;;;;;;;7.75;4.43;;;;;;;18.89;54.28;94703.00;4202824;28;20051;-57
2022/06/20 05:02:41;;;;;;;9.65;4.38;;;;;;;18.87;54.45;94711.16;4191610;28;20075;-55
2022/06/20 05:04:45;;;;;;;8.60;4.60;;;;;;;18.90;54.13;94704.59;4196958;28;20075;-56
2022/06/20 05:06:47;;;;;;;12.07;4.40;;;;;;;18.94;54.54;94703.16;4202951;28;20065;-56
2022/06/20 05:08:55;;;;;;;8.82;4.63;;;;;;;18.94;54.19;94700.50;4199216;28;20089;-55
2022/06/20 05:11:09;;;;;;;7.97;5.07;;;;;;;18.77;54.58;94698.28;4205918;28;20059;-54
2022/06/20 05:13:13;;;;;;;6.38;4.65;;;;;;;18.67;55.11;94695.28;4206186;28;20451;-56
2022/06/20 05:15:17;;;;;;;8.93;4.22;;;;;;;18.67;55.14;94697.09;4199313;28;20082;-56
2022/06/20 05:17:22;;;;;;;9.35;4.38;;;;;;;18.80;55.03;94695.25;4202045;28;20369;-52
2022/06/20 05:19:29;;;;;;;7.53;4.10;;;;;;;18.95;54.32;94702.13;4207421;28;20070;-56
2022/06/20 05:21:36;;;;;;;10.00;4.30;;;;;;;19.00;54.41;94704.97;4210930;28;20051;-55
2022/06/20 05:23:50;;;;;;;8.07;5.13;;;;;;;19.05;54.84;94707.00;4189404;28;20060;-55
2022/06/20 05:25:52;;;;;;;6.68;4.13;;;;;;;19.13;54.25;94709.41;4212555;28;20496;-54
2022/06/20 05:28:00;;;;;;;13.50;5.38;;;;;;;18.78;54.86;94702.63;4208416;28;20490;-56
2022/06/20 05:30:06;;;;;;;11.77;4.75;;;;;;;18.45;55.53;94705.31;4201364;28;20479;-52
2022/06/20 05:32:13;;;;;;;12.35;4.93;;;;;;;18.56;55.20;94704.69;4198263;28;20047;-56
2022/06/20 05:34:38;;;;;;;8.05;4.78;;;;;;;18.82;54.82;94701.16;4196658;28;20431;-54
2022/06/20 05:36:56;;;;;;;9.43;5.30;;;;;;;18.94;54.47;94713.78;4193861;28;20047;-57
2022/06/20 05:39:09;;;;;;;8.25;5.00;;;;;;;19.03;54.25;94709.84;4208549;28;20044;-56
2022/06/20 05:41:14;;;;;;;6.72;5.53;;;;;;;18.70;55.36;94704.66;4214807;28;20468;-56
2022/06/20 05:43:18;;;;;;;7.85;5.70;;;;;;;18.51;55.37;94704.50;4213461;28;20679;-57
2022/06/20 05:45:22;;;;;;;7.68;5.45;;;;;;;18.68;55.54;94701.38;4205089;28;20462;-54
2022/06/20 05:47:35;;;;;;;6.93;4.97;;;;;;;18.90;54.99;94701.94;4194515;28;20052;-55
2022/06/20 05:49:47;;;;;;;7.65;4.60;;;;;;;19.20;54.50;94707.53;4207271;28;20044;-55
2022/06/20 05:51:49;;;;;;;9.27;5.53;;;;;;;19.44;54.56;94698.81;4206582;28;20048;-54
2022/06/20 05:54:21;;;;;;;8.95;5.90;;;;;;;19.70;53.88;94701.53;4208451;28;20128;-59
2022/06/20 05:56:28;;;;;;;10.38;6.40;;;;;;;19.89;53.28;94703.22;4199568;28;20044;-57
2022/06/20 05:58:32;;;;;;;11.77;6.05;;;;;;;20.06;52.75;94692.88;4198882;28;20256;-53
2022/06/20 06:00:36;;;;;;;13.23;7.32;;;;;;;20.17;52.13;94694.00;4203408;28;20137;-56
2022/06/20 06:02:44;;;;;;;12.40;6.30;;;;;;;19.96;52.04;94696.03;4205740;28;20048;-55
2022/06/20 06:05:01;;;;;;;13.38;6.95;;;;;;;19.88;52.02;94701.63;4206431;28;20465;-54
2022/06/20 06:07:07;;;;;;;10.60;6.90;;;;;;;19.95;52.42;94699.72;4209992;28;20060;-57
2022/06/20 06:09:23;;;;;;;13.48;6.68;;;;;;;20.03;52.54;94699.44;4199335;28;20052;-54
2022/06/20 06:11:37;;;;;;;10.38;6.15;;;;;;;20.08;51.83;94700.63;4209636;28;20547;-56
2022/06/20 06:13:52;;;;;;;9.35;6.78;;;;;;;20.06;51.75;94687.53;4211182;28;20148;-56
2022/06/20 06:18:14;;;;;;;9.20;5.28;;;;;;;20.33;51.89;94685.47;4198657;28;20443;-54
2022/06/20 06:20:19;;;;;;;10.60;5.50;;;;;;;20.50;51.17;94683.03;4211099;28;20524;-55
2022/06/20 06:22:24;;;;;;;7.72;6.00;;;;;;;20.50;50.72;94685.72;4210494;28;20126;-56
2022/06/20 06:24:26;;;;;;;9.07;6.20;;;;;;;20.39;50.75;94692.56;4209342;28;20056;-55
2022/06/20 06:26:28;;;;;;;8.70;5.88;;;;;;;20.24;51.18;94684.94;4209142;28;20056;-55
2022/06/20 06:28:31;;;;;;;9.23;5.95;;;;;;;20.24;51.11;94687.59;4205741;28;20048;-53
2022/06/20 06:30:46;;;;;;;9.10;6.32;;;;;;;20.18;50.75;94679.69;4207470;28;20044;-55
2022/06/20 06:33:05;;;;;;;9.35;6.03;;;;;;;20.28;50.74;94685.28;4213062;28;20454;-56
2022/06/20 06:35:13;;;;;;;11.00;7.80;;;;;;;20.52;50.50;94680.16;4194931;28;20068;-55
2022/06/20 06:37:20;;;;;;;11.35;5.45;;;;;;;20.72;49.96;94679.97;4201424;28;20117;-57
2022/06/20 06:39:30;;;;;;;11.45;5.93;;;;;;;20.83;49.68;94669.38;4219939;28;20040;-56
2022/06/20 06:41:37;;;;;;;10.98;5.18;;;;;;;20.96;49.88;94672.94;4221262;28;20129;-53
2022/06/20 06:43:42;;;;;;;9.63;5.32;;;;;;;21.07;49.57;94666.84;4213240;28;20502;-55
2022/06/20 06:45:45;;;;;;;8.60;5.07;;;;;;;21.22;49.29;94666.44;4200253;28;20040;-55
2022/06/20 06:48:02;;;;;;;8.13;4.65;;;;;;;21.38;48.58;94668.47;4209090;28;20044;-56
2022/06/20 06:50:36;;;;;;;7.57;4.45;;;;;;;21.56;48.05;94661.47;4208056;28;20202;-55
2022/06/20 06:52:46;;;;;;;9.02;4.85;;;;;;;21.43;48.04;94654.50;4211343;28;20056;-56
2022/06/20 06:54:51;;;;;;;8.48;4.20;;;;;;;21.24;48.28;94657.16;4199536;28;20168;-54
2022/06/20 06:56:58;;;;;;;7.55;4.78;;;;;;;21.23;48.81;94644.91;4207186;28;20083;-56
2022/06/20 06:59:20;;;;;;;7.28;4.95;;;;;;;21.40;48.35;94644.25;4203508;28;20055;-54
2022/06/20 07:01:24;;;;;;;5.10;3.83;;;;;;;21.62;47.86;94645.38;4205177;28;20124;-55
2022/06/20 07:03:35;;;;;;;10.15;4.20;;;;;;;21.79;47.73;94634.03;4203590;28;20048;-56
2022/06/20 07:05:40;;;;;;;8.07;4.53;;;;;;;21.84;47.78;94631.50;4212220;28;20050;-54
2022/06/20 07:07:46;;;;;;;12.02;4.30;;;;;;;21.91;47.47;94621.53;4217949;28;20089;-53
2022/06/20 07:09:52;;;;;;;10.63;4.32;;;;;;;21.94;47.23;94623.75;4196982;28;20578;-56
2022/06/20 07:12:27;;;;;;;8.60;3.60;;;;;;;22.07;47.45;94625.38;4201456;28;20048;-55
2022/06/20 07:14:33;;;;;;;5.07;3.70;;;;;;;22.27;47.25;94620.50;4203036;28;20587;-57
2022/06/20 07:16:40;;;;;;;4.20;3.03;;;;;;;22.39;46.47;94623.19;4207668;28;20132;-55
2022/06/20 07:18:49;;;;;;;8.07;3.20;;;;;;;22.48;45.89;94619.09;4217279;28;20067;-55
2022/06/20 07:20:50;;;;;;;8.13;3.83;;;;;;;22.46;45.56;94621.19;4203865;28;20101;-57
2022/06/20 07:22:53;;;;;;;7.20;3.80;;;;;;;22.40;46.75;94622.13;4205208;28;20130;-57
2022/06/20 07:24:55;;;;;;;4.18;2.95;;;;;;;22.41;45.57;94621.09;4208888;28;20052;-55
2022/06/20 07:27:07;;;;;;;5.20;3.38;;;;;;;22.33;45.41;94616.09;4211122;28;20135;-55
2022/06/20 07:29:28;;;;;;;9.30;3.72;;;;;;;22.51;45.92;94617.00;4214174;28;20079;-54
2022/06/20 07:31:42;;;;;;;10.02;4.63;;;;;;;22.70;45.76;94618.47;4210497;28;20048;-54
2022/06/20 07:33:51;;;;;;;5.60;3.50;;;;;;;22.83;44.65;94618.19;4211850;28;20048;-56
2022/06/20 07:35:55;;;;;;;13.10;3.67;;;;;;;22.98;44.80;94616.88;4207772;28;20101;-55
2022/06/20 07:38:03;;;;;;;6.10;3.17;;;;;;;23.10;44.65;94620.31;4210868;28;20048;-57
2022/06/20 07:40:20;;;;;;;6.68;3.80;;;;;;;23.14;44.31;94613.44;4208011;28;20044;-56
2022/06/20 07:42:44;;;;;;;8.02;3.33;;;;;;;23.21;44.52;94619.47;4204063;28;20068;-55
2022/06/20 07:44:49;;;;;;;8.70;3.30;;;;;;;23.24;43.24;94618.97;4198598;28;20044;-54
2022/06/20 07:46:56;;;;;;;6.18;3.53;;;;;;;23.37;43.51;94617.06;4208384;28;20061;-55
2022/06/20 07:49:03;;;;;;;9.90;3.80;;;;;;;23.39;43.41;94618.44;4197991;28;20155;-53
2022/06/20 07:51:26;;;;;;;10.30;5.40;;;;;;;23.23;43.12;94620.03;4206224;28;20060;-54
2022/06/20 07:53:37;;;;;;;12.55;6.10;;;;;;;23.09;43.60;94616.03;4202388;28;20492;-54
2022/06/20 07:55:46;;;;;;;8.60;3.67;;;;;;;22.82;43.97;94616.56;4199234;28;20511;-55
2022/06/20 07:57:56;;;;;;;8.02;3.58;;;;;;;22.83;44.32;94612.03;4204865;28;20543;-58
2022/06/20 08:00:09;;;;;;;10.60;3.65;;;;;;;22.82;44.46;94607.72;4197530;28;20506;-56
2022/06/20 08:02:18;;;;;;;12.33;5.10;;;;;;;23.09;44.58;94608.81;4201714;28;20128;-57
2022/06/20 08:04:27;;;;;;;5.63;3.63;;;;;;;23.28;42.91;94605.97;4226435;27;20048;-56
2022/06/20 08:06:48;;;;;;;5.90;2.97;;;;;;;23.37;41.09;94603.69;4202056;28;20421;-54
2022/06/20 08:08:57;;;;;;;5.28;2.75;;;;;;;23.60;41.69;94605.44;4195219;28;20435;-54
2022/06/20 08:11:03;;;;;;;5.75;3.20;;;;;;;23.84;41.63;94600.75;4190809;28;20136;-56
2022/06/20 08:13:22;;;;;;;12.25;3.50;;;;;;;23.88;40.18;94602.69;4206816;28;20465;-56
2022/06/20 08:15:26;;;;;;;5.78;3.33;;;;;;;23.85;42.25;94597.81;4196874;28;20328;-55
2022/06/20 08:17:29;;;;;;;5.50;3.38;;;;;;;23.93;41.25;94596.59;4208821;28;20056;-56
2022/06/20 08:19:32;;;;;;;7.20;2.90;;;;;;;23.91;39.99;94593.38;4210854;28;20471;-56
2022/06/20 08:21:36;;;;;;;8.13;2.75;;;;;;;23.81;38.44;94595.88;4208288;28;20108;-55
2022/06/20 08:23:47;;;;;;;5.22;2.80;;;;;;;23.85;38.82;94591.66;4195940;28;20128;-55
2022/06/20 08:26:02;;;;;;;4.88;3.13;;;;;;;24.09;37.89;94594.94;4211324;28;20078;-55
2022/06/20 08:28:38;;;;;;;6.90;2.75;;;;;;;24.10;38.69;94592.03;4211951;28;20064;-56
2022/06/20 08:30:47;;;;;;;5.38;2.63;;;;;;;24.31;38.92;94586.97;4207029;28;20040;-57
2022/06/20 08:32:49;;;;;;;4.60;2.70;;;;;;;24.28;37.53;94593.63;4209054;28;20317;-54
2022/06/20 08:35:07;;;;;;;5.43;2.70;;;;;;;24.38;36.95;94586.81;4220984;28;20047;-55
2022/06/20 08:37:21;;;;;;;5.53;2.55;;;;;;;24.32;37.75;94588.59;4199042;28;20056;-56
2022/06/20 08:39:32;;;;;;;;;;;;;;;24.28;37.10;94580.22;4207169;28;20048;-57
2022/06/20 08:41:58;;;;;;;4.05;2.40;;;;;;;23.96;35.76;94590.75;4213494;28;19932;-55
2022/06/20 08:44:27;;;;;;;9.10;2.80;;;;;;;24.01;37.42;94584.69;4207264;28;20063;-57
2022/06/20 08:46:56;;;;;;;4.80;2.78;;;;;;;23.94;36.41;94592.06;4205323;28;20052;-55
2022/06/20 08:49:33;;;;;;;3.53;2.33;;;;;;;23.76;36.63;94587.78;4196768;28;20059;-56
2022/06/20 08:51:39;;;;;;;7.30;2.65;;;;;;;24.08;37.53;94583.44;4184383;28;20390;-56
2022/06/20 08:54:36;;;;;;;9.18;2.47;;;;;;;24.44;37.15;94573.22;4208986;28;20048;-56
2022/06/20 08:57:05;;;;;;;8.18;4.13;;;;;;;24.68;37.08;94587.19;4184715;28;20051;-56
2022/06/20 08:59:17;;;;;;;4.70;2.55;;;;;;;24.76;35.11;94583.28;4200122;28;20139;-56
2022/06/20 09:01:43;;;;;;;4.63;2.05;;;;;;;24.63;35.27;94581.78;4212485;28;20482;-56
2022/06/20 09:04:02;;;;;;;12.30;5.15;;;;;;;24.77;35.03;94579.53;4209636;28;20051;-56
2022/06/20 09:06:38;;;;;;;7.22;2.58;;;;;;;24.84;34.35;94577.47;4195241;28;20145;-54
2022/06/20 09:09:02;;;;;;;4.43;2.00;;;;;;;25.03;34.83;94579.81;4208641;28;20081;-56
2022/06/20 09:11:21;;;;;;;6.45;2.13;;;;;;;24.90;34.20;94570.31;4205798;28;20532;-56
2022/06/20 09:13:35;;;;;;;4.35;2.20;;;;;;;24.81;33.94;94564.59;4202249;28;20582;-57
2022/06/20 09:15:42;;;;;;;2.92;1.70;;;;;;;24.74;33.93;94563.97;4206955;28;20085;-55
2022/06/20 09:18:02;;;;;;;4.22;2.03;;;;;;;24.80;32.74;94562.97;4221823;28;20105;-56
2022/06/20 09:20:24;;;;;;;6.45;1.85;;;;;;;25.06;33.55;94565.91;4207904;28;20048;-55
2022/06/20 09:22:45;;;;;;;2.67;1.95;;;;;;;25.21;33.55;94558.06;4217714;28;20044;-57
2022/06/20 09:24:58;;;;;;;3.47;1.90;;;;;;;25.42;33.82;94553.66;4193657;28;20053;-54
2022/06/20 09:27:12;;;;;;;6.65;2.20;;;;;;;25.52;34.11;94544.91;4208568;28;20113;-57
2022/06/20 09:29:14;;;;;;;5.63;2.38;;;;;;;25.69;34.09;94547.47;4220566;28;20182;-57
2022/06/20 09:31:46;;;;;;;4.07;1.90;;;;;;;25.87;31.96;94544.34;4208743;28;20044;-54
2022/06/20 09:34:15;;;;;;;4.22;3.15;;;;;;;25.97;31.44;94543.66;4217341;28;20139;-56
2022/06/20 09:36:23;;;;;;;5.65;2.17;;;;;;;25.78;30.22;94537.06;4195609;28;20049;-56
2022/06/20 09:38:56;;;;;;;4.72;2.20;;;;;;;25.86;31.20;94555.38;4200947;28;20055;-56
2022/06/20 09:41:59;;;;;;;3.75;1.80;;;;;;;25.90;32.11;94548.44;4210738;28;20044;-56
2022/06/20 09:44:25;;;;;;;6.38;2.00;;;;;;;25.94;30.48;94552.19;4139531;28;20052;-57
2022/06/20 09:47:05;;;;;;;3.88;1.63;;;;;;;26.01;30.60;94550.13;4174252;28;20318;-55
2022/06/20 09:49:07;;;;;;;3.75;1.80;;;;;;;26.13;30.25;94542.66;4190477;28;20093;-56
2022/06/20 09:51:25;;;;;;;3.47;1.80;;;;;;;25.69;30.57;94548.25;4211280;28;20044;-58
2022/06/20 09:53:38;;;;;;;3.88;2.00;;;;;;;25.65;31.03;94541.78;4209534;28;20059;-56
2022/06/20 09:56:15;;;;;;;3.65;1.85;;;;;;;25.89;32.20;94546.81;4194464;28;20098;-57
2022/06/20 09:58:54;;;;;;;3.65;1.95;;;;;;;26.00;31.07;94539.63;4166175;28;20363;-55
2022/06/20 10:01:14;;;;;;;3.08;1.70;;;;;;;25.82;31.21;94544.31;4208196;28;20052;-57
2022/06/20 10:03:35;;;;;;;4.30;1.58;;;;;;;25.57;31.37;94528.84;4203470;28;20144;-56
2022/06/20 10:05:57;;;;;;;2.45;1.73;;;;;;;25.53;30.63;94530.41;4194715;28;20048;-56
2022/06/20 10:08:05;;;;;;;6.80;2.20;;;;;;;25.38;30.56;94530.31;4198211;28;20052;-56
2022/06/20 10:10:17;;;;;;;3.58;2.17;;;;;;;25.33;30.08;94533.75;4209890;28;20138;-55
2022/06/20 10:12:49;;;;;;;3.45;1.63;;;;;;;25.41;30.01;94524.44;4200909;28;20328;-55
2022/06/20 10:15:04;;;;;;;2.92;2.17;;;;;;;25.80;31.22;94521.50;4206011;28;20125;-56
2022/06/20 10:17:09;;;;;;;4.90;2.17;;;;;;;25.93;29.83;94527.25;4199616;28;20503;-54
2022/06/20 10:19:17;;;;;;;4.28;1.92;;;;;;;25.88;30.83;94529.06;4205990;28;20056;-55
2022/06/20 10:21:37;;;;;;;4.70;2.35;;;;;;;25.97;30.09;94522.19;4208526;28;20487;-57
2022/06/20 10:24:04;;;;;;;4.35;2.15;;;;;;;25.95;30.11;94519.75;4200170;28;20105;-56
2022/06/20 10:26:34;;;;;;;2.55;1.77;;;;;;;25.90;30.84;94524.28;4202010;28;20117;-56